MYST2: Pat Mayse Lake

Data processed at Fri Mar 09 2018 23:40


All information presented herein is the property of the government of the United States of America and may be revised or deleted at any time without prior notice.
Dissemination of this information without the expressed written consent of the Public Affairs Office, Tulsa District U.S. Army Corps of Engineers is strictly prohibited.
These data are gathered electronically and, as presented, have not undergone any form of quality control. These data are not guaranteed to be valid or correct.
Go to home page.
Go to station list.

Downstream station:


Previous Day
Next Day
Current Day
    
SHEF ID:       MYST2     Pat Mayse Lake
STATION TYPE:  RESERVOIR
Normal Pool:  Bottom =   415.00, Top =   451.00

               PRECIP PRECIP(A) ELEVATION   STORAGE    INFLOW   RELEASE  AIR-TEMP  WIND-DIRWIND-SPEED REL-HUMID SOLAR-RAD   VOLTAGE  BAT-LOAD
                   in        in        ft     ac-ft       cfs       cfs         F       deg       mph         %      W/m2      volt      volt
              Ccp-Rev   Ccp-Rev   Ccp-Rev   Ccp-Rev  Regi-Rev  Regi-Rev   Ccp-Rev   Ccp-Rev   Ccp-Rev   Ccp-Rev   Ccp-Rev   Ccp-Rev   Ccp-Rev
(US/Central)
03/07 00:00      0.00      ----    460.63    181899         0       783     45.86    316.20     14.70     14.39      0.00     12.90     12.65
03/07 01:00      0.00      ----    460.62    181823         0       783     42.85    320.90     10.60     19.37      0.00     12.88     12.65
03/07 02:00      0.00      ----    460.61    181746         0       782     39.99    323.20      8.30     21.67      0.00     12.87     12.65
03/07 03:00      0.00      ----    460.60    181670         0       782     38.89    323.30     10.60     23.88      0.00     12.86     12.65
03/07 04:00      0.00      ----    460.59    181593         1       782     36.93    306.20      6.80     30.20      0.00     12.84     12.65
03/07 05:00      0.00      ----    460.58    181517         1       782     35.46    315.00      5.60     32.16      0.00     12.83     12.57
03/07 06:00      0.00      ----    460.58    181517         1       782     34.30    311.40      6.20     36.54      0.00     12.82     12.57
03/07 07:00      0.00      ----    460.57    181440         1       781     33.17    312.30      6.10     39.08      0.00     12.82     12.57
03/07 08:00      0.00      ----    460.56    181364         0       781     34.18    303.20      7.40     34.09     88.40     13.06     12.57
03/07 09:00      0.00      ----    460.55    181287         0       781     36.63    304.90     10.50     31.27    318.90     13.37     12.81
03/07 10:00      0.00      ----    460.53    181134         0       781     38.95    301.20     10.60     28.05    559.10     13.93     12.97
03/07 11:00      0.00      ----    460.53    181134         0       781     41.47    294.30     10.20     25.65    726.90     13.47     13.13
03/07 12:00      0.00      ----    460.52    181058         0       780     44.55    289.20     10.40     21.31    847.20     14.87     13.13
03/07 13:00      0.00      ----    460.50    180905         0       780     47.19    291.30     11.50     20.33    873.50     15.12     14.08
03/07 14:00      0.00      ----    460.49    180828         0       780     49.80    292.80     10.40     17.04    839.80     15.06     14.56
03/07 15:00      0.00      ----    460.48    180752         0       780     51.98    295.50     10.20     15.35    741.70     14.94     14.48
03/07 16:00      0.00      ----    460.46    180599         0       779     52.63    296.10      9.20     14.13    582.30     14.68     14.00
03/07 17:00      0.00      ----    460.45    180522         0       779     52.72    290.60      9.00     13.53    376.60     13.84     13.37
03/07 18:00      0.00      ----    460.44    180446         0       779     51.91    292.30      7.90     13.87    126.00     13.17     13.13
03/07 19:00      0.00      ----    460.43    180369         0       776     49.71    284.30      2.80     16.77      2.50     13.06     12.89
03/07 20:00      0.00      ----    460.42    180293         0       776     48.15    317.70      0.60     19.34      0.00     13.02     12.81
03/07 21:00      0.00      ----    460.41    180216         0       778     45.03    352.80      0.80     26.27      0.00     12.99     12.73
03/07 22:00      0.00      ----    460.40    180140         0       778     43.92     98.70      0.80     30.72      0.00     12.96     12.73
03/07 23:00      0.00      ----    460.39    180063         0       778     42.06    126.70      1.20     38.73      0.00     12.93     12.73